sensor_id;sensor_type;location;lat;lon;timestamp;temperature;humidity
52103;DHT22;38101;53.126;6.878;2023-02-07T00:02:24;3.20;99.90
52103;DHT22;38101;53.126;6.878;2023-02-07T00:04:49;3.20;99.90
52103;DHT22;38101;53.126;6.878;2023-02-07T00:07:15;3.20;99.90
52103;DHT22;38101;53.126;6.878;2023-02-07T00:09:41;3.10;99.90
52103;DHT22;38101;53.126;6.878;2023-02-07T00:12:06;3.10;99.90
52103;DHT22;38101;53.126;6.878;2023-02-07T00:14:33;3.10;99.90
52103;DHT22;38101;53.126;6.878;2023-02-07T00:16:58;3.10;99.90
52103;DHT22;38101;53.126;6.878;2023-02-07T00:19:24;3.10;99.90
52103;DHT22;38101;53.126;6.878;2023-02-07T00:21:50;3.10;99.90
52103;DHT22;38101;53.126;6.878;2023-02-07T00:24:15;3.00;99.90
52103;DHT22;38101;53.126;6.878;2023-02-07T00:26:41;3.10;99.90
52103;DHT22;38101;53.126;6.878;2023-02-07T00:29:07;3.00;99.90
52103;DHT22;38101;53.126;6.878;2023-02-07T00:31:34;3.00;99.90
52103;DHT22;38101;53.126;6.878;2023-02-07T00:34:02;3.00;99.90
52103;DHT22;38101;53.126;6.878;2023-02-07T00:36:30;3.00;99.90
52103;DHT22;38101;53.126;6.878;2023-02-07T00:38:59;3.00;99.90
52103;DHT22;38101;53.126;6.878;2023-02-07T00:41:26;3.00;99.90
52103;DHT22;38101;53.126;6.878;2023-02-07T00:43:52;3.00;99.90
52103;DHT22;38101;53.126;6.878;2023-02-07T00:46:18;3.00;99.90
52103;DHT22;38101;53.126;6.878;2023-02-07T00:48:44;2.90;99.90
52103;DHT22;38101;53.126;6.878;2023-02-07T00:51:12;3.00;99.90
52103;DHT22;38101;53.126;6.878;2023-02-07T00:53:40;2.90;99.90
52103;DHT22;38101;53.126;6.878;2023-02-07T00:56:07;2.90;99.90
52103;DHT22;38101;53.126;6.878;2023-02-07T00:58:33;2.90;99.90
52103;DHT22;38101;53.126;6.878;2023-02-07T01:00:59;2.90;99.90
52103;DHT22;38101;53.126;6.878;2023-02-07T01:03:26;2.90;99.90
52103;DHT22;38101;53.126;6.878;2023-02-07T01:05:52;2.80;99.90
52103;DHT22;38101;53.126;6.878;2023-02-07T01:08:17;2.80;99.90
52103;DHT22;38101;53.126;6.878;2023-02-07T01:10:44;2.80;99.90
52103;DHT22;38101;53.126;6.878;2023-02-07T01:13:11;2.80;99.90
52103;DHT22;38101;53.126;6.878;2023-02-07T01:15:40;2.70;99.90
52103;DHT22;38101;53.126;6.878;2023-02-07T01:18:07;2.70;99.90
52103;DHT22;38101;53.126;6.878;2023-02-07T01:20:33;2.70;99.90
52103;DHT22;38101;53.126;6.878;2023-02-07T01:22:59;2.70;99.90
52103;DHT22;38101;53.126;6.878;2023-02-07T01:25:24;2.60;99.90
52103;DHT22;38101;53.126;6.878;2023-02-07T01:27:51;2.60;99.90
52103;DHT22;38101;53.126;6.878;2023-02-07T01:30:17;2.60;99.90
52103;DHT22;38101;53.126;6.878;2023-02-07T01:32:43;2.60;99.90
52103;DHT22;38101;53.126;6.878;2023-02-07T01:35:09;2.60;99.90
52103;DHT22;38101;53.126;6.878;2023-02-07T01:37:35;2.50;99.90
52103;DHT22;38101;53.126;6.878;2023-02-07T01:40:00;2.50;99.90
52103;DHT22;38101;53.126;6.878;2023-02-07T01:42:27;2.40;99.90
52103;DHT22;38101;53.126;6.878;2023-02-07T01:47:21;2.40;99.90
52103;DHT22;38101;53.126;6.878;2023-02-07T01:49:51;2.30;99.90
52103;DHT22;38101;53.126;6.878;2023-02-07T01:52:21;2.30;99.90
52103;DHT22;38101;53.126;6.878;2023-02-07T01:54:51;2.30;99.90
52103;DHT22;38101;53.126;6.878;2023-02-07T01:57:20;2.20;99.90
52103;DHT22;38101;53.126;6.878;2023-02-07T01:59:48;2.20;99.90
52103;DHT22;38101;53.126;6.878;2023-02-07T02:02:16;2.20;99.90
52103;DHT22;38101;53.126;6.878;2023-02-07T02:04:44;2.10;99.90
52103;DHT22;38101;53.126;6.878;2023-02-07T02:07:10;2.10;99.90
52103;DHT22;38101;53.126;6.878;2023-02-07T02:09:38;2.10;99.90
52103;DHT22;38101;53.126;6.878;2023-02-07T02:28:55;1.90;99.90
52103;DHT22;38101;53.126;6.878;2023-02-07T02:34:05;1.80;99.90
52103;DHT22;38101;53.126;6.878;2023-02-07T02:37:00;1.90;99.90
52103;DHT22;38101;53.126;6.878;2023-02-07T02:42:17;1.70;99.90
52103;DHT22;38101;53.126;6.878;2023-02-07T02:45:00;1.70;99.90
52103;DHT22;38101;53.126;6.878;2023-02-07T02:47:28;1.70;99.90
52103;DHT22;38101;53.126;6.878;2023-02-07T02:49:55;1.70;99.90
52103;DHT22;38101;53.126;6.878;2023-02-07T02:52:22;1.60;99.90
52103;DHT22;38101;53.126;6.878;2023-02-07T02:54:47;1.60;99.90
52103;DHT22;38101;53.126;6.878;2023-02-07T03:02:51;1.50;99.90
52103;DHT22;38101;53.126;6.878;2023-02-07T03:07:55;1.40;99.90
52103;DHT22;38101;53.126;6.878;2023-02-07T03:16:01;1.30;99.90
52103;DHT22;38101;53.126;6.878;2023-02-07T03:21:26;1.30;99.90
52103;DHT22;38101;53.126;6.878;2023-02-07T03:23:55;1.30;99.90
52103;DHT22;38101;53.126;6.878;2023-02-07T03:26:23;1.20;99.90
52103;DHT22;38101;53.126;6.878;2023-02-07T03:28:50;1.20;99.90
52103;DHT22;38101;53.126;6.878;2023-02-07T03:31:20;1.10;99.90
52103;DHT22;38101;53.126;6.878;2023-02-07T03:33:48;1.20;99.90
52103;DHT22;38101;53.126;6.878;2023-02-07T03:36:30;1.20;99.90
52103;DHT22;38101;53.126;6.878;2023-02-07T03:38:58;1.20;99.90
52103;DHT22;38101;53.126;6.878;2023-02-07T03:41:51;1.20;99.90
52103;DHT22;38101;53.126;6.878;2023-02-07T03:44:16;1.20;99.90
52103;DHT22;38101;53.126;6.878;2023-02-07T03:46:44;1.10;99.90
52103;DHT22;38101;53.126;6.878;2023-02-07T03:49:09;1.20;99.90
52103;DHT22;38101;53.126;6.878;2023-02-07T03:51:36;1.10;99.90
52103;DHT22;38101;53.126;6.878;2023-02-07T03:54:02;1.10;99.90
52103;DHT22;38101;53.126;6.878;2023-02-07T03:56:28;1.10;99.90
52103;DHT22;38101;53.126;6.878;2023-02-07T03:58:54;1.00;99.90
52103;DHT22;38101;53.126;6.878;2023-02-07T04:01:20;1.00;99.90
52103;DHT22;38101;53.126;6.878;2023-02-07T04:03:45;1.00;99.90
52103;DHT22;38101;53.126;6.878;2023-02-07T04:06:11;0.90;99.90
52103;DHT22;38101;53.126;6.878;2023-02-07T04:08:37;0.90;99.90
52103;DHT22;38101;53.126;6.878;2023-02-07T04:11:03;1.00;99.90
52103;DHT22;38101;53.126;6.878;2023-02-07T04:13:29;1.00;99.90
52103;DHT22;38101;53.126;6.878;2023-02-07T04:15:55;1.00;99.90
52103;DHT22;38101;53.126;6.878;2023-02-07T04:18:20;0.90;99.90
52103;DHT22;38101;53.126;6.878;2023-02-07T04:20:46;0.90;99.90
52103;DHT22;38101;53.126;6.878;2023-02-07T04:23:12;1.00;99.90
52103;DHT22;38101;53.126;6.878;2023-02-07T04:25:38;0.90;99.90
52103;DHT22;38101;53.126;6.878;2023-02-07T04:28:04;0.90;99.90
52103;DHT22;38101;53.126;6.878;2023-02-07T04:30:30;0.90;99.90
52103;DHT22;38101;53.126;6.878;2023-02-07T04:32:56;0.80;99.90
52103;DHT22;38101;53.126;6.878;2023-02-07T04:35:22;0.80;99.90
52103;DHT22;38101;53.126;6.878;2023-02-07T04:37:48;0.80;99.90
52103;DHT22;38101;53.126;6.878;2023-02-07T04:40:14;0.80;99.90
52103;DHT22;38101;53.126;6.878;2023-02-07T04:42:39;0.80;99.90
52103;DHT22;38101;53.126;6.878;2023-02-07T04:45:06;0.70;99.90
52103;DHT22;38101;53.126;6.878;2023-02-07T04:47:31;0.60;99.90
52103;DHT22;38101;53.126;6.878;2023-02-07T04:49:58;0.50;99.90
52103;DHT22;38101;53.126;6.878;2023-02-07T04:52:24;0.60;99.90
52103;DHT22;38101;53.126;6.878;2023-02-07T04:54:50;0.50;99.90
52103;DHT22;38101;53.126;6.878;2023-02-07T04:57:15;0.60;99.90
52103;DHT22;38101;53.126;6.878;2023-02-07T04:59:41;0.50;99.90
52103;DHT22;38101;53.126;6.878;2023-02-07T05:02:07;0.50;99.90
52103;DHT22;38101;53.126;6.878;2023-02-07T05:04:33;0.50;99.90
52103;DHT22;38101;53.126;6.878;2023-02-07T05:06:58;0.50;99.90
52103;DHT22;38101;53.126;6.878;2023-02-07T05:09:24;0.60;99.90
52103;DHT22;38101;53.126;6.878;2023-02-07T05:11:50;0.50;99.90
52103;DHT22;38101;53.126;6.878;2023-02-07T05:14:15;0.50;99.90
52103;DHT22;38101;53.126;6.878;2023-02-07T05:16:41;0.40;99.90
52103;DHT22;38101;53.126;6.878;2023-02-07T05:19:07;0.40;99.90
52103;DHT22;38101;53.126;6.878;2023-02-07T05:21:32;0.30;99.90
52103;DHT22;38101;53.126;6.878;2023-02-07T05:23:58;0.30;99.90
52103;DHT22;38101;53.126;6.878;2023-02-07T05:26:24;0.30;99.90
52103;DHT22;38101;53.126;6.878;2023-02-07T05:28:50;0.30;99.90
52103;DHT22;38101;53.126;6.878;2023-02-07T05:31:15;0.30;99.90
52103;DHT22;38101;53.126;6.878;2023-02-07T05:33:41;0.30;99.90
52103;DHT22;38101;53.126;6.878;2023-02-07T05:36:07;0.40;99.90
52103;DHT22;38101;53.126;6.878;2023-02-07T05:38:33;0.20;99.90
52103;DHT22;38101;53.126;6.878;2023-02-07T05:40:59;0.20;99.90
52103;DHT22;38101;53.126;6.878;2023-02-07T05:43:25;0.10;99.90
52103;DHT22;38101;53.126;6.878;2023-02-07T05:45:50;0.10;99.90
52103;DHT22;38101;53.126;6.878;2023-02-07T05:48:16;0.10;99.90
52103;DHT22;38101;53.126;6.878;2023-02-07T05:50:42;0.10;99.90
52103;DHT22;38101;53.126;6.878;2023-02-07T05:53:08;0.10;99.90
52103;DHT22;38101;53.126;6.878;2023-02-07T05:55:35;0.10;99.90
52103;DHT22;38101;53.126;6.878;2023-02-07T05:58:01;0.10;99.90
52103;DHT22;38101;53.126;6.878;2023-02-07T06:00:26;0.10;99.90
52103;DHT22;38101;53.126;6.878;2023-02-07T06:02:52;0.10;99.90
52103;DHT22;38101;53.126;6.878;2023-02-07T06:05:18;0.10;99.90
52103;DHT22;38101;53.126;6.878;2023-02-07T06:07:49;0.10;99.90
52103;DHT22;38101;53.126;6.878;2023-02-07T06:10:15;0.10;99.90
52103;DHT22;38101;53.126;6.878;2023-02-07T06:12:41;0.10;99.90
52103;DHT22;38101;53.126;6.878;2023-02-07T06:15:07;0.00;99.90
52103;DHT22;38101;53.126;6.878;2023-02-07T06:17:33;0.00;99.90
52103;DHT22;38101;53.126;6.878;2023-02-07T06:19:58;0.00;99.90
52103;DHT22;38101;53.126;6.878;2023-02-07T06:22:24;0.00;99.90
52103;DHT22;38101;53.126;6.878;2023-02-07T06:24:50;0.00;99.90
52103;DHT22;38101;53.126;6.878;2023-02-07T06:27:16;0.00;99.90
52103;DHT22;38101;53.126;6.878;2023-02-07T06:29:41;0.00;99.90
52103;DHT22;38101;53.126;6.878;2023-02-07T06:32:07;0.00;99.90
52103;DHT22;38101;53.126;6.878;2023-02-07T06:34:33;0.00;99.90
52103;DHT22;38101;53.126;6.878;2023-02-07T06:36:59;-0.10;99.90
52103;DHT22;38101;53.126;6.878;2023-02-07T06:39:24;-0.20;99.90
52103;DHT22;38101;53.126;6.878;2023-02-07T06:41:50;-0.20;99.90
52103;DHT22;38101;53.126;6.878;2023-02-07T06:44:16;-0.20;99.90
52103;DHT22;38101;53.126;6.878;2023-02-07T06:46:42;-0.20;99.90
52103;DHT22;38101;53.126;6.878;2023-02-07T06:49:09;-0.20;99.90
52103;DHT22;38101;53.126;6.878;2023-02-07T06:51:34;-0.20;99.90
52103;DHT22;38101;53.126;6.878;2023-02-07T06:54:00;-0.20;99.90
52103;DHT22;38101;53.126;6.878;2023-02-07T06:56:28;-0.20;99.90
52103;DHT22;38101;53.126;6.878;2023-02-07T06:58:54;-0.30;99.90
52103;DHT22;38101;53.126;6.878;2023-02-07T07:01:20;-0.20;99.90
52103;DHT22;38101;53.126;6.878;2023-02-07T07:03:46;-0.20;99.90
52103;DHT22;38101;53.126;6.878;2023-02-07T07:06:12;-0.20;99.90
52103;DHT22;38101;53.126;6.878;2023-02-07T07:08:38;-0.20;99.90
52103;DHT22;38101;53.126;6.878;2023-02-07T07:11:04;-0.20;99.90
52103;DHT22;38101;53.126;6.878;2023-02-07T07:13:30;-0.20;99.90
52103;DHT22;38101;53.126;6.878;2023-02-07T07:15:55;-0.10;99.90
52103;DHT22;38101;53.126;6.878;2023-02-07T07:18:21;-0.10;99.90
52103;DHT22;38101;53.126;6.878;2023-02-07T07:20:54;-0.10;99.90
52103;DHT22;38101;53.126;6.878;2023-02-07T07:23:20;-0.10;99.90
52103;DHT22;38101;53.126;6.878;2023-02-07T07:25:46;-0.10;99.90
52103;DHT22;38101;53.126;6.878;2023-02-07T07:28:12;0.00;99.90
52103;DHT22;38101;53.126;6.878;2023-02-07T07:30:37;0.00;99.90
52103;DHT22;38101;53.126;6.878;2023-02-07T07:33:03;0.00;99.90
52103;DHT22;38101;53.126;6.878;2023-02-07T07:35:29;0.00;99.90
52103;DHT22;38101;53.126;6.878;2023-02-07T07:37:55;0.10;99.90
52103;DHT22;38101;53.126;6.878;2023-02-07T07:40:20;0.10;99.90
52103;DHT22;38101;53.126;6.878;2023-02-07T07:42:46;0.10;99.90
52103;DHT22;38101;53.126;6.878;2023-02-07T07:45:12;0.10;99.90
52103;DHT22;38101;53.126;6.878;2023-02-07T07:47:38;0.10;99.90
52103;DHT22;38101;53.126;6.878;2023-02-07T07:50:05;0.20;99.90
52103;DHT22;38101;53.126;6.878;2023-02-07T07:52:32;0.20;99.90
52103;DHT22;38101;53.126;6.878;2023-02-07T07:54:59;0.20;99.90
52103;DHT22;38101;53.126;6.878;2023-02-07T07:57:24;0.20;99.90
52103;DHT22;38101;53.126;6.878;2023-02-07T07:59:53;0.30;99.90
52103;DHT22;38101;53.126;6.878;2023-02-07T08:02:19;0.30;99.90
52103;DHT22;38101;53.126;6.878;2023-02-07T08:04:45;0.30;99.90
52103;DHT22;38101;53.126;6.878;2023-02-07T08:07:12;0.30;99.90
52103;DHT22;38101;53.126;6.878;2023-02-07T08:09:37;0.30;99.90
52103;DHT22;38101;53.126;6.878;2023-02-07T08:12:04;0.40;99.90
52103;DHT22;38101;53.126;6.878;2023-02-07T08:14:29;0.40;99.90
52103;DHT22;38101;53.126;6.878;2023-02-07T08:16:55;0.40;99.90
52103;DHT22;38101;53.126;6.878;2023-02-07T08:19:21;0.40;99.90
52103;DHT22;38101;53.126;6.878;2023-02-07T08:21:47;0.50;99.90
52103;DHT22;38101;53.126;6.878;2023-02-07T08:24:12;0.50;99.90
52103;DHT22;38101;53.126;6.878;2023-02-07T08:26:38;0.50;99.90
52103;DHT22;38101;53.126;6.878;2023-02-07T08:29:04;0.50;99.90
52103;DHT22;38101;53.126;6.878;2023-02-07T08:31:30;0.60;99.90
52103;DHT22;38101;53.126;6.878;2023-02-07T08:33:56;0.70;99.90
52103;DHT22;38101;53.126;6.878;2023-02-07T08:36:21;0.60;99.90
52103;DHT22;38101;53.126;6.878;2023-02-07T08:38:47;0.60;99.90
52103;DHT22;38101;53.126;6.878;2023-02-07T08:41:13;0.70;99.90
52103;DHT22;38101;53.126;6.878;2023-02-07T08:43:38;0.70;99.90
52103;DHT22;38101;53.126;6.878;2023-02-07T08:46:06;0.70;99.90
52103;DHT22;38101;53.126;6.878;2023-02-07T08:48:33;0.70;99.90
52103;DHT22;38101;53.126;6.878;2023-02-07T08:51:07;0.80;99.90
52103;DHT22;38101;53.126;6.878;2023-02-07T08:53:33;0.80;99.90
52103;DHT22;38101;53.126;6.878;2023-02-07T08:55:59;0.80;99.90
52103;DHT22;38101;53.126;6.878;2023-02-07T08:58:25;0.80;99.90
52103;DHT22;38101;53.126;6.878;2023-02-07T09:00:50;0.80;99.90
52103;DHT22;38101;53.126;6.878;2023-02-07T09:03:16;0.90;99.90
52103;DHT22;38101;53.126;6.878;2023-02-07T09:05:42;0.90;99.90
52103;DHT22;38101;53.126;6.878;2023-02-07T09:08:08;0.90;99.90
52103;DHT22;38101;53.126;6.878;2023-02-07T09:10:34;0.90;99.90
52103;DHT22;38101;53.126;6.878;2023-02-07T09:12:59;0.90;99.90
52103;DHT22;38101;53.126;6.878;2023-02-07T09:15:25;0.90;99.90
52103;DHT22;38101;53.126;6.878;2023-02-07T09:17:51;0.90;99.90
52103;DHT22;38101;53.126;6.878;2023-02-07T09:20:17;1.00;99.90
52103;DHT22;38101;53.126;6.878;2023-02-07T09:22:43;1.00;99.90
52103;DHT22;38101;53.126;6.878;2023-02-07T09:25:28;1.00;99.90
52103;DHT22;38101;53.126;6.878;2023-02-07T09:27:53;1.00;99.90
52103;DHT22;38101;53.126;6.878;2023-02-07T09:30:20;1.10;99.90
52103;DHT22;38101;53.126;6.878;2023-02-07T09:32:46;1.00;99.90
52103;DHT22;38101;53.126;6.878;2023-02-07T09:35:12;1.10;99.90
52103;DHT22;38101;53.126;6.878;2023-02-07T09:37:38;1.10;99.90
52103;DHT22;38101;53.126;6.878;2023-02-07T09:40:05;1.10;99.90
52103;DHT22;38101;53.126;6.878;2023-02-07T09:42:47;1.10;99.90
52103;DHT22;38101;53.126;6.878;2023-02-07T09:45:18;1.10;99.90
52103;DHT22;38101;53.126;6.878;2023-02-07T09:47:46;1.10;99.90
52103;DHT22;38101;53.126;6.878;2023-02-07T09:50:26;1.20;99.90
52103;DHT22;38101;53.126;6.878;2023-02-07T09:53:15;1.20;99.90
52103;DHT22;38101;53.126;6.878;2023-02-07T09:55:59;1.20;99.90
52103;DHT22;38101;53.126;6.878;2023-02-07T09:58:45;1.20;99.90
52103;DHT22;38101;53.126;6.878;2023-02-07T10:01:21;1.30;99.90
52103;DHT22;38101;53.126;6.878;2023-02-07T10:06:26;1.30;99.90
52103;DHT22;38101;53.126;6.878;2023-02-07T10:08:54;1.30;99.90
52103;DHT22;38101;53.126;6.878;2023-02-07T10:22:42;1.50;99.90
52103;DHT22;38101;53.126;6.878;2023-02-07T10:25:32;1.50;99.90
52103;DHT22;38101;53.126;6.878;2023-02-07T10:30:59;1.50;99.90
52103;DHT22;38101;53.126;6.878;2023-02-07T10:33:34;1.60;99.90
52103;DHT22;38101;53.126;6.878;2023-02-07T10:36:07;1.60;99.90
52103;DHT22;38101;53.126;6.878;2023-02-07T10:38:51;1.60;99.90
52103;DHT22;38101;53.126;6.878;2023-02-07T10:41:35;1.70;99.90
52103;DHT22;38101;53.126;6.878;2023-02-07T10:44:08;1.70;99.90
52103;DHT22;38101;53.126;6.878;2023-02-07T10:46:35;1.70;99.90
52103;DHT22;38101;53.126;6.878;2023-02-07T10:49:01;1.80;99.90
52103;DHT22;38101;53.126;6.878;2023-02-07T10:51:41;1.90;99.90
52103;DHT22;38101;53.126;6.878;2023-02-07T10:54:19;2.00;99.90
52103;DHT22;38101;53.126;6.878;2023-02-07T10:57:20;1.80;99.90
52103;DHT22;38101;53.126;6.878;2023-02-07T10:59:41;1.90;99.90
52103;DHT22;38101;53.126;6.878;2023-02-07T11:05:00;2.00;99.90
52103;DHT22;38101;53.126;6.878;2023-02-07T11:07:26;2.00;99.90
52103;DHT22;38101;53.126;6.878;2023-02-07T11:10:16;2.10;99.90
52103;DHT22;38101;53.126;6.878;2023-02-07T11:12:52;2.10;99.90
52103;DHT22;38101;53.126;6.878;2023-02-07T11:15:21;2.20;99.90
52103;DHT22;38101;53.126;6.878;2023-02-07T11:17:54;2.20;99.90
52103;DHT22;38101;53.126;6.878;2023-02-07T11:20:27;2.30;99.90
52103;DHT22;38101;53.126;6.878;2023-02-07T11:22:55;2.30;99.90
52103;DHT22;38101;53.126;6.878;2023-02-07T11:25:40;2.40;99.90
52103;DHT22;38101;53.126;6.878;2023-02-07T11:28:13;2.40;99.90
52103;DHT22;38101;53.126;6.878;2023-02-07T11:30:40;2.40;99.90
52103;DHT22;38101;53.126;6.878;2023-02-07T11:33:16;2.60;99.90
52103;DHT22;38101;53.126;6.878;2023-02-07T11:36:27;2.60;99.90
52103;DHT22;38101;53.126;6.878;2023-02-07T11:38:53;2.60;99.90
52103;DHT22;38101;53.126;6.878;2023-02-07T11:44:00;2.70;99.90
52103;DHT22;38101;53.126;6.878;2023-02-07T11:46:38;2.80;99.90
52103;DHT22;38101;53.126;6.878;2023-02-07T11:49:20;2.80;99.90
52103;DHT22;38101;53.126;6.878;2023-02-07T11:51:57;2.80;99.90
52103;DHT22;38101;53.126;6.878;2023-02-07T11:54:23;2.90;99.90
52103;DHT22;38101;53.126;6.878;2023-02-07T11:57:08;2.90;99.90
52103;DHT22;38101;53.126;6.878;2023-02-07T11:59:35;2.90;99.90
52103;DHT22;38101;53.126;6.878;2023-02-07T12:04:41;3.00;99.90
52103;DHT22;38101;53.126;6.878;2023-02-07T12:07:18;3.10;99.90
52103;DHT22;38101;53.126;6.878;2023-02-07T12:09:54;3.10;99.90
52103;DHT22;38101;53.126;6.878;2023-02-07T12:15:54;3.20;99.90
52103;DHT22;38101;53.126;6.878;2023-02-07T12:18:02;3.30;99.90
52103;DHT22;38101;53.126;6.878;2023-02-07T12:26:07;3.60;99.90
52103;DHT22;38101;53.126;6.878;2023-02-07T12:34:31;3.80;99.90
52103;DHT22;38101;53.126;6.878;2023-02-07T12:37:04;4.00;99.90
52103;DHT22;38101;53.126;6.878;2023-02-07T12:39:45;4.10;99.90
52103;DHT22;38101;53.126;6.878;2023-02-07T12:44:57;4.30;99.90
52103;DHT22;38101;53.126;6.878;2023-02-07T12:47:45;4.30;99.90
52103;DHT22;38101;53.126;6.878;2023-02-07T12:50:26;4.40;99.90
52103;DHT22;38101;53.126;6.878;2023-02-07T12:58:47;4.70;99.90
52103;DHT22;38101;53.126;6.878;2023-02-07T13:01:17;4.80;99.90
52103;DHT22;38101;53.126;6.878;2023-02-07T13:09:30;5.10;99.90
52103;DHT22;38101;53.126;6.878;2023-02-07T13:17:34;5.40;99.90
52103;DHT22;38101;53.126;6.878;2023-02-07T13:23:20;5.50;99.90
52103;DHT22;38101;53.126;6.878;2023-02-07T13:25:57;5.50;99.90
52103;DHT22;38101;53.126;6.878;2023-02-07T13:31:46;5.50;99.90
52103;DHT22;38101;53.126;6.878;2023-02-07T13:34:34;5.60;99.90
52103;DHT22;38101;53.126;6.878;2023-02-07T13:37:01;5.70;99.90
52103;DHT22;38101;53.126;6.878;2023-02-07T13:39:47;5.70;99.90
52103;DHT22;38101;53.126;6.878;2023-02-07T13:55:34;5.80;99.90
52103;DHT22;38101;53.126;6.878;2023-02-07T14:01:17;5.80;99.90
52103;DHT22;38101;53.126;6.878;2023-02-07T14:04:08;5.80;99.90
52103;DHT22;38101;53.126;6.878;2023-02-07T14:07:01;5.80;99.90
52103;DHT22;38101;53.126;6.878;2023-02-07T14:09:32;5.80;99.90
52103;DHT22;38101;53.126;6.878;2023-02-07T14:12:05;5.90;99.90
52103;DHT22;38101;53.126;6.878;2023-02-07T14:14:37;5.90;99.90
52103;DHT22;38101;53.126;6.878;2023-02-07T14:17:08;6.00;99.90
52103;DHT22;38101;53.126;6.878;2023-02-07T14:25:45;6.20;99.90
52103;DHT22;38101;53.126;6.878;2023-02-07T14:30:31;6.20;99.90
52103;DHT22;38101;53.126;6.878;2023-02-07T14:33:19;6.20;99.90
52103;DHT22;38101;53.126;6.878;2023-02-07T14:38:43;6.20;99.90
52103;DHT22;38101;53.126;6.878;2023-02-07T14:41:15;6.20;99.90
52103;DHT22;38101;53.126;6.878;2023-02-07T14:43:53;6.30;99.90
52103;DHT22;38101;53.126;6.878;2023-02-07T14:46:32;6.30;99.90
52103;DHT22;38101;53.126;6.878;2023-02-07T14:49:03;6.30;99.90
52103;DHT22;38101;53.126;6.878;2023-02-07T14:51:50;6.20;99.90
52103;DHT22;38101;53.126;6.878;2023-02-07T14:59:53;6.10;99.90
52103;DHT22;38101;53.126;6.878;2023-02-07T15:02:36;6.10;99.90
52103;DHT22;38101;53.126;6.878;2023-02-07T15:10:27;6.00;99.90
52103;DHT22;38101;53.126;6.878;2023-02-07T15:12:54;6.10;99.90
52103;DHT22;38101;53.126;6.878;2023-02-07T15:15:25;6.20;99.90
52103;DHT22;38101;53.126;6.878;2023-02-07T15:17:54;6.30;99.90
52103;DHT22;38101;53.126;6.878;2023-02-07T15:20:33;6.20;99.90
52103;DHT22;38101;53.126;6.878;2023-02-07T15:23:02;6.20;99.90
52103;DHT22;38101;53.126;6.878;2023-02-07T15:25:32;6.10;99.90
52103;DHT22;38101;53.126;6.878;2023-02-07T15:28:27;6.00;99.90
52103;DHT22;38101;53.126;6.878;2023-02-07T15:30:58;5.90;99.90
52103;DHT22;38101;53.126;6.878;2023-02-07T15:33:27;5.80;99.90
52103;DHT22;38101;53.126;6.878;2023-02-07T15:35:53;5.70;99.90
52103;DHT22;38101;53.126;6.878;2023-02-07T15:38:22;5.60;99.90
52103;DHT22;38101;53.126;6.878;2023-02-07T15:40:49;5.50;99.90
52103;DHT22;38101;53.126;6.878;2023-02-07T15:43:31;5.40;99.90
52103;DHT22;38101;53.126;6.878;2023-02-07T15:46:09;5.30;99.90
52103;DHT22;38101;53.126;6.878;2023-02-07T15:48:53;5.20;99.90
52103;DHT22;38101;53.126;6.878;2023-02-07T15:51:26;5.10;99.90
52103;DHT22;38101;53.126;6.878;2023-02-07T15:53:58;5.00;99.90
52103;DHT22;38101;53.126;6.878;2023-02-07T15:56:26;4.90;99.90
52103;DHT22;38101;53.126;6.878;2023-02-07T15:58:57;4.90;99.90
52103;DHT22;38101;53.126;6.878;2023-02-07T16:01:26;4.80;99.90
52103;DHT22;38101;53.126;6.878;2023-02-07T16:03:54;4.80;99.90
52103;DHT22;38101;53.126;6.878;2023-02-07T16:08:50;4.70;99.90
52103;DHT22;38101;53.126;6.878;2023-02-07T16:13:53;4.60;99.90
52103;DHT22;38101;53.126;6.878;2023-02-07T16:16:31;4.50;99.90
52103;DHT22;38101;53.126;6.878;2023-02-07T16:21:41;4.40;99.90
52103;DHT22;38101;53.126;6.878;2023-02-07T16:24:19;4.30;99.90
52103;DHT22;38101;53.126;6.878;2023-02-07T16:26:46;4.30;99.90
52103;DHT22;38101;53.126;6.878;2023-02-07T16:29:21;4.20;99.90
52103;DHT22;38101;53.126;6.878;2023-02-07T16:31:48;4.20;99.90
52103;DHT22;38101;53.126;6.878;2023-02-07T16:34:16;4.10;99.90
52103;DHT22;38101;53.126;6.878;2023-02-07T16:36:43;4.00;99.90
52103;DHT22;38101;53.126;6.878;2023-02-07T16:39:09;4.00;99.90
52103;DHT22;38101;53.126;6.878;2023-02-07T16:41:40;4.00;99.90
52103;DHT22;38101;53.126;6.878;2023-02-07T16:44:15;4.00;99.90
52103;DHT22;38101;53.126;6.878;2023-02-07T16:46:42;3.90;99.90
52103;DHT22;38101;53.126;6.878;2023-02-07T16:49:16;3.80;99.90
52103;DHT22;38101;53.126;6.878;2023-02-07T16:51:43;3.80;99.90
52103;DHT22;38101;53.126;6.878;2023-02-07T16:54:09;3.80;99.90
52103;DHT22;38101;53.126;6.878;2023-02-07T16:56:35;3.70;99.90
52103;DHT22;38101;53.126;6.878;2023-02-07T16:59:02;3.70;99.90
52103;DHT22;38101;53.126;6.878;2023-02-07T17:01:28;3.60;99.90
52103;DHT22;38101;53.126;6.878;2023-02-07T17:03:54;3.60;99.90
52103;DHT22;38101;53.126;6.878;2023-02-07T17:06:22;3.60;99.90
52103;DHT22;38101;53.126;6.878;2023-02-07T17:08:49;3.50;99.90
52103;DHT22;38101;53.126;6.878;2023-02-07T17:11:18;3.50;99.90
52103;DHT22;38101;53.126;6.878;2023-02-07T17:13:57;3.50;99.90
52103;DHT22;38101;53.126;6.878;2023-02-07T17:16:24;3.40;99.90
52103;DHT22;38101;53.126;6.878;2023-02-07T17:18:52;3.40;99.90
52103;DHT22;38101;53.126;6.878;2023-02-07T17:21:18;3.30;99.90
52103;DHT22;38101;53.126;6.878;2023-02-07T17:23:46;3.30;99.90
52103;DHT22;38101;53.126;6.878;2023-02-07T17:26:25;3.30;99.90
52103;DHT22;38101;53.126;6.878;2023-02-07T17:28:52;3.30;99.90
52103;DHT22;38101;53.126;6.878;2023-02-07T17:31:18;3.30;99.90
52103;DHT22;38101;53.126;6.878;2023-02-07T17:33:44;3.20;99.90
52103;DHT22;38101;53.126;6.878;2023-02-07T17:36:12;3.30;99.90
52103;DHT22;38101;53.126;6.878;2023-02-07T17:38:38;3.20;99.90
52103;DHT22;38101;53.126;6.878;2023-02-07T17:41:04;3.20;99.90
52103;DHT22;38101;53.126;6.878;2023-02-07T17:43:31;3.10;99.90
52103;DHT22;38101;53.126;6.878;2023-02-07T17:45:57;3.10;99.90
52103;DHT22;38101;53.126;6.878;2023-02-07T17:48:23;3.00;99.90
52103;DHT22;38101;53.126;6.878;2023-02-07T17:50:49;3.00;99.90
52103;DHT22;38101;53.126;6.878;2023-02-07T17:53:15;3.00;99.90
52103;DHT22;38101;53.126;6.878;2023-02-07T17:55:45;3.00;99.90
52103;DHT22;38101;53.126;6.878;2023-02-07T17:58:13;3.00;99.90
52103;DHT22;38101;53.126;6.878;2023-02-07T18:00:40;2.90;99.90
52103;DHT22;38101;53.126;6.878;2023-02-07T18:03:06;2.90;99.90
52103;DHT22;38101;53.126;6.878;2023-02-07T18:05:32;2.90;99.90
52103;DHT22;38101;53.126;6.878;2023-02-07T18:07:58;2.80;99.90
52103;DHT22;38101;53.126;6.878;2023-02-07T18:10:27;2.80;99.90
52103;DHT22;38101;53.126;6.878;2023-02-07T18:12:53;2.80;99.90
52103;DHT22;38101;53.126;6.878;2023-02-07T18:15:19;2.80;99.90
52103;DHT22;38101;53.126;6.878;2023-02-07T18:17:46;2.70;99.90
52103;DHT22;38101;53.126;6.878;2023-02-07T18:20:22;2.70;99.90
52103;DHT22;38101;53.126;6.878;2023-02-07T18:22:52;2.70;99.90
52103;DHT22;38101;53.126;6.878;2023-02-07T18:25:22;2.60;99.90
52103;DHT22;38101;53.126;6.878;2023-02-07T18:27:49;2.60;99.90
52103;DHT22;38101;53.126;6.878;2023-02-07T18:30:17;2.60;99.90
52103;DHT22;38101;53.126;6.878;2023-02-07T18:32:43;2.50;99.90